Αρχική σελίδα
METAR-TAF:

METAR-TAF

Αεροδρόμια :

Auburn, Καλιφόρνια, Ηνωμένες Πολιτείες Αμερικής

γεωγραφικό πλάτος: 38-57N, γεωγραφικό μήκος: 121-04W, υψόμετρο: 467 μ

Παρών καιρός

Η αναφορά έγινε 17 λεπτά πριν, στις 07:35 UTC
Άνεμος 4 kt από Α
Θερμοκρασία 20°C
Υγρασία 30%
Πίεση 1016 hPa
Ορατότητα: 16.1 χλμ
Καθαρός ουρανός

METAR: KAUN 220735Z AUTO 09004KT 10SM CLR 20/02 A2999 RMK A01

Χρόνος: 00:52 (07:52 UTC)


TAF: λείπει

Μετεωρολογικές αναφορές και προγνώσεις για περισσότερα από 4000 αεροδρόμια (δελτία METAR και TAF).

Οι διαθέσιμοι σταθμοί απεικονίζονται στο χάρτη με κίτρινες και κόκκινες κουκκίδες.

Μετακινήστε το ποντίκι πάνω από τις κουκκίδες για να δείτε το όνομα του σταθμού.

Στη συνέχεια, κάντε κλικ για να δείτε τις μετεωρολογικές αναφορές και τις προγνώσεις καιρού.

Για να αλλάξετε το χάρτη: κάντε κλικ στα πράσινα κουμπιά με τον μαύρο σταυρό για να ζουμάρετε, στο πράσινο κουμπί με την παύλα για να αφαιρέσετε το ζουμ ή στα πράσινα βέλη για να αντιπαραβάλλετε χάρτες.


METAR-TAF: